This is the latest recevied weather packets stored in our database for station/object K5NOC-12. If no packets are shown the sender has not sent any weather packets the latest 10 day(s).
| Time | Temp. | Humidity | Pressure | Rain* | Wind** | Luminosity | Snow |
|---|---|---|---|---|---|---|---|
| 1787628780 | 31.67° C | 30% | 1017.7 hPa | 0 mm | - | - | - |
| 1787627879 | 32.22° C | 30% | 1017.6 hPa | 0 mm | - | - | - |
| 1787626979 | 32.78° C | 29% | 1017.4 hPa | 0 mm | - | - | - |
| 1787626079 | 33.33° C | 28% | 1017.3 hPa | 0 mm | - | - | - |
| 1787625179 | 33.89° C | 27% | 1017.2 hPa | 0 mm | - | - | - |
| 1787624279 | 34.44° C | 26% | 1017.1 hPa | 0 mm | - | - | - |
| 1787623379 | 35° C | 25% | 1016.8 hPa | 0 mm | - | - | - |
| 1787622478 | 35.56° C | 24% | 1016.6 hPa | 0 mm | - | - | - |
| 1787621578 | 36.11° C | 23% | 1016.4 hPa | 0 mm | - | - | - |
| 1787620678 | 37.22° C | 22% | 1016.1 hPa | 0 mm | - | - | - |
| 1787619778 | 37.78° C | 21% | 1016 hPa | 0 mm | - | - | - |
| 1787618878 | 38.33° C | 20% | 1016.1 hPa | 0 mm | - | - | - |
| 1787617977 | 38.89° C | 20% | 1016.1 hPa | 0 mm | - | - | - |
| 1787617077 | 39.44° C | 19% | 1016.1 hPa | 0 mm | - | - | - |
| 1787616177 | 39.44° C | 20% | 1016.1 hPa | 0 mm | - | - | - |
| 1787615277 | 39.44° C | 19% | 1016.2 hPa | 0 mm | - | - | - |
| 1787614377 | 38.89° C | 19% | 1016.2 hPa | 0 mm | - | - | - |
| 1787613477 | 38.89° C | 19% | 1016.3 hPa | 0 mm | - | - | - |
| 1787612577 | 39.44° C | 19% | 1016.3 hPa | 0 mm | - | - | - |
| 1787611677 | 40° C | 19% | 1016.2 hPa | 0 mm | - | - | - |
| 1787610776 | 39.44° C | 18% | 1016.3 hPa | 0 mm | - | - | - |
| 1787609876 | 39.44° C | 18% | 1016.3 hPa | 0 mm | - | - | - |
| 1787608976 | 40° C | 18% | 1016.4 hPa | 0 mm | - | - | - |
| 1787608076 | 40.56° C | 17% | 1016.5 hPa | 0 mm | - | - | - |
| 1787607176 | 39.44° C | 20% | 1016.6 hPa | 0 mm | - | - | - |
* Rain latest hour (hover to see other rain measurements)
** Current wind speed in m/s (hover to see current wind gust speed)